Aviation Digital Data Service (ADDS)

Output produced by TAFs form (0235 UTC 29 July 2014)
found at http://aviationweather.gov/adds/tafs/
 
KELP 282333Z 2900/2924 12012KT P6SM VCTS SCT070CB SCT140 BKN250 
     FM290500 VRB04KT P6SM SCT120 SCT250 
     FM292000 21007KT P6SM VCTS SCT080CB SCT250